sensor_id;sensor_type;location;lat;lon;timestamp;pressure;altitude;pressure_sealevel;temperature;humidity
19594;BME280;9944;48.240;16.478;2023-07-13T00:00:46;99454.13;;;22.55;62.50
19594;BME280;9944;48.240;16.478;2023-07-13T00:05:10;99453.75;;;22.46;62.59
19594;BME280;9944;48.240;16.478;2023-07-13T00:09:35;99453.16;;;22.40;62.59
19594;BME280;9944;48.240;16.478;2023-07-13T00:13:59;99450.84;;;22.34;62.74
19594;BME280;9944;48.240;16.478;2023-07-13T00:18:23;99435.13;;;22.27;62.81
19594;BME280;9944;48.240;16.478;2023-07-13T00:22:48;99430.13;;;22.20;62.41
19594;BME280;9944;48.240;16.478;2023-07-13T00:27:12;99413.22;;;22.18;62.86
19594;BME280;9944;48.240;16.478;2023-07-13T00:31:37;99411.66;;;22.14;62.94
19594;BME280;9944;48.240;16.478;2023-07-13T00:36:01;99403.75;;;22.11;62.74
19594;BME280;9944;48.240;16.478;2023-07-13T00:40:25;99407.66;;;22.05;62.52
19594;BME280;9944;48.240;16.478;2023-07-13T00:45:04;99405.44;;;21.98;62.56
19594;BME280;9944;48.240;16.478;2023-07-13T00:49:31;99406.47;;;21.95;62.68
19594;BME280;9944;48.240;16.478;2023-07-13T00:53:58;99412.91;;;21.93;62.16
19594;BME280;9944;48.240;16.478;2023-07-13T00:58:24;99397.78;;;21.90;62.38
19594;BME280;9944;48.240;16.478;2023-07-13T01:02:48;99383.59;;;21.88;62.30
19594;BME280;9944;48.240;16.478;2023-07-13T01:07:15;99383.75;;;21.85;62.58
19594;BME280;9944;48.240;16.478;2023-07-13T01:11:40;99365.91;;;21.84;62.12
19594;BME280;9944;48.240;16.478;2023-07-13T01:16:13;99360.53;;;21.84;62.19
19594;BME280;9944;48.240;16.478;2023-07-13T01:20:39;99378.38;;;21.85;62.11
19594;BME280;9944;48.240;16.478;2023-07-13T01:25:05;99381.06;;;21.85;62.56
19594;BME280;9944;48.240;16.478;2023-07-13T01:29:31;99383.06;;;21.81;62.71
19594;BME280;9944;48.240;16.478;2023-07-13T01:33:55;99381.16;;;21.83;62.83
19594;BME280;9944;48.240;16.478;2023-07-13T01:38:22;99372.81;;;21.88;62.59
19594;BME280;9944;48.240;16.478;2023-07-13T01:42:47;99364.69;;;21.90;62.71
19594;BME280;9944;48.240;16.478;2023-07-13T01:47:14;99358.53;;;21.87;63.08
19594;BME280;9944;48.240;16.478;2023-07-13T01:51:37;99376.66;;;21.84;62.80
19594;BME280;9944;48.240;16.478;2023-07-13T01:56:01;99348.19;;;21.80;63.15
19594;BME280;9944;48.240;16.478;2023-07-13T02:00:27;99343.50;;;21.67;63.50
19594;BME280;9944;48.240;16.478;2023-07-13T02:04:51;99335.38;;;21.53;62.75
19594;BME280;9944;48.240;16.478;2023-07-13T02:09:15;99344.28;;;21.54;61.94
19594;BME280;9944;48.240;16.478;2023-07-13T02:13:39;99361.09;;;21.57;61.19
19594;BME280;9944;48.240;16.478;2023-07-13T02:18:05;99370.38;;;21.67;61.13
19594;BME280;9944;48.240;16.478;2023-07-13T02:22:29;99365.53;;;21.74;61.29
19594;BME280;9944;48.240;16.478;2023-07-13T02:26:53;99383.47;;;21.74;61.73
19594;BME280;9944;48.240;16.478;2023-07-13T02:31:17;99406.69;;;21.75;62.23
19594;BME280;9944;48.240;16.478;2023-07-13T02:35:42;99434.69;;;21.71;61.82
19594;BME280;9944;48.240;16.478;2023-07-13T02:40:07;99455.34;;;21.70;61.24
19594;BME280;9944;48.240;16.478;2023-07-13T02:44:31;99478.31;;;21.76;61.27
19594;BME280;9944;48.240;16.478;2023-07-13T02:48:55;99504.00;;;21.81;60.99
19594;BME280;9944;48.240;16.478;2023-07-13T02:53:19;99517.09;;;21.87;61.35
19594;BME280;9944;48.240;16.478;2023-07-13T02:57:43;99545.69;;;21.88;61.33
19594;BME280;9944;48.240;16.478;2023-07-13T03:02:07;99542.00;;;21.91;61.32
19594;BME280;9944;48.240;16.478;2023-07-13T03:06:31;99553.69;;;21.90;62.17
19594;BME280;9944;48.240;16.478;2023-07-13T03:11:01;99571.00;;;21.84;62.42
19594;BME280;9944;48.240;16.478;2023-07-13T03:15:28;99579.28;;;21.80;63.02
19594;BME280;9944;48.240;16.478;2023-07-13T03:19:53;99585.16;;;21.71;66.23
19594;BME280;9944;48.240;16.478;2023-07-13T03:24:17;99585.81;;;21.58;64.81
19594;BME280;9944;48.240;16.478;2023-07-13T03:28:42;99600.69;;;21.48;65.12
19594;BME280;9944;48.240;16.478;2023-07-13T03:33:11;99598.63;;;21.36;66.00
19594;BME280;9944;48.240;16.478;2023-07-13T03:37:35;99603.66;;;21.24;66.54
19594;BME280;9944;48.240;16.478;2023-07-13T03:42:10;99618.53;;;21.14;67.21
19594;BME280;9944;48.240;16.478;2023-07-13T03:46:35;99627.06;;;21.03;67.57
19594;BME280;9944;48.240;16.478;2023-07-13T03:50:59;99628.25;;;20.98;68.22
19594;BME280;9944;48.240;16.478;2023-07-13T03:55:24;99631.88;;;20.97;68.79
19594;BME280;9944;48.240;16.478;2023-07-13T03:59:49;99635.66;;;20.92;69.40
19594;BME280;9944;48.240;16.478;2023-07-13T04:04:14;99623.34;;;20.88;69.91
19594;BME280;9944;48.240;16.478;2023-07-13T04:08:38;99622.69;;;20.83;69.92
19594;BME280;9944;48.240;16.478;2023-07-13T04:13:02;99617.47;;;20.80;70.10
19594;BME280;9944;48.240;16.478;2023-07-13T04:17:25;99612.25;;;20.77;71.07
19594;BME280;9944;48.240;16.478;2023-07-13T04:21:51;99619.59;;;20.73;71.28
19594;BME280;9944;48.240;16.478;2023-07-13T04:26:15;99615.09;;;20.74;71.51
19594;BME280;9944;48.240;16.478;2023-07-13T04:30:38;99586.53;;;20.73;71.43
19594;BME280;9944;48.240;16.478;2023-07-13T04:35:02;99555.53;;;20.67;71.95
19594;BME280;9944;48.240;16.478;2023-07-13T04:39:28;99544.22;;;20.61;71.81
19594;BME280;9944;48.240;16.478;2023-07-13T04:43:52;99555.09;;;20.58;72.36
19594;BME280;9944;48.240;16.478;2023-07-13T04:48:20;99533.00;;;20.52;72.42
19594;BME280;9944;48.240;16.478;2023-07-13T04:52:44;99513.44;;;20.50;73.48
19594;BME280;9944;48.240;16.478;2023-07-13T04:57:10;99506.47;;;20.46;73.35
19594;BME280;9944;48.240;16.478;2023-07-13T05:01:33;99491.13;;;20.50;74.17
19594;BME280;9944;48.240;16.478;2023-07-13T05:05:59;99490.88;;;20.54;74.61
19594;BME280;9944;48.240;16.478;2023-07-13T05:10:23;99474.78;;;20.54;74.97
19594;BME280;9944;48.240;16.478;2023-07-13T05:14:49;99475.09;;;20.48;74.68
19594;BME280;9944;48.240;16.478;2023-07-13T05:19:12;99483.06;;;20.50;74.35
19594;BME280;9944;48.240;16.478;2023-07-13T05:23:36;99475.75;;;20.53;74.09
19594;BME280;9944;48.240;16.478;2023-07-13T05:28:00;99478.44;;;20.53;74.50
19594;BME280;9944;48.240;16.478;2023-07-13T05:32:28;99463.97;;;20.56;74.68
19594;BME280;9944;48.240;16.478;2023-07-13T05:36:53;99476.53;;;20.55;73.99
19594;BME280;9944;48.240;16.478;2023-07-13T05:41:17;99487.97;;;20.59;74.65
19594;BME280;9944;48.240;16.478;2023-07-13T05:45:41;99498.63;;;20.61;74.16
19594;BME280;9944;48.240;16.478;2023-07-13T05:50:07;99498.13;;;20.52;73.74
19594;BME280;9944;48.240;16.478;2023-07-13T05:54:31;99500.03;;;20.50;73.79
19594;BME280;9944;48.240;16.478;2023-07-13T05:58:56;99511.75;;;20.48;74.33
19594;BME280;9944;48.240;16.478;2023-07-13T06:03:20;99511.69;;;20.49;74.76
19594;BME280;9944;48.240;16.478;2023-07-13T06:07:45;99516.84;;;20.54;74.70
19594;BME280;9944;48.240;16.478;2023-07-13T06:12:09;99520.22;;;20.58;74.39
19594;BME280;9944;48.240;16.478;2023-07-13T06:16:33;99523.84;;;20.56;74.78
19594;BME280;9944;48.240;16.478;2023-07-13T06:20:57;99527.69;;;20.51;74.30
19594;BME280;9944;48.240;16.478;2023-07-13T06:25:23;99543.06;;;20.47;73.70
19594;BME280;9944;48.240;16.478;2023-07-13T06:29:47;99556.69;;;20.43;73.65
19594;BME280;9944;48.240;16.478;2023-07-13T06:34:10;99566.06;;;20.34;72.70
19594;BME280;9944;48.240;16.478;2023-07-13T06:38:35;99574.41;;;20.28;72.72
19594;BME280;9944;48.240;16.478;2023-07-13T06:43:01;99573.56;;;20.27;72.51
19594;BME280;9944;48.240;16.478;2023-07-13T06:47:24;99593.03;;;20.31;72.93
19594;BME280;9944;48.240;16.478;2023-07-13T06:51:48;99597.31;;;20.35;72.97
19594;BME280;9944;48.240;16.478;2023-07-13T06:56:13;99598.81;;;20.41;73.84
19594;BME280;9944;48.240;16.478;2023-07-13T07:00:37;99603.97;;;20.45;73.59
19594;BME280;9944;48.240;16.478;2023-07-13T07:05:02;99610.25;;;20.44;73.25
19594;BME280;9944;48.240;16.478;2023-07-13T07:09:26;99604.81;;;20.46;72.66
19594;BME280;9944;48.240;16.478;2023-07-13T07:13:53;99612.81;;;20.47;72.83
19594;BME280;9944;48.240;16.478;2023-07-13T07:18:18;99612.53;;;20.53;72.35
19594;BME280;9944;48.240;16.478;2023-07-13T07:22:42;99603.22;;;20.61;72.76
19594;BME280;9944;48.240;16.478;2023-07-13T07:27:06;99598.28;;;20.70;72.17
19594;BME280;9944;48.240;16.478;2023-07-13T07:31:33;99590.72;;;20.79;71.36
19594;BME280;9944;48.240;16.478;2023-07-13T07:36:01;99584.25;;;20.83;71.09
19594;BME280;9944;48.240;16.478;2023-07-13T07:40:29;99591.22;;;20.87;70.91
19594;BME280;9944;48.240;16.478;2023-07-13T07:44:56;99583.03;;;20.90;70.61
19594;BME280;9944;48.240;16.478;2023-07-13T07:49:20;99582.84;;;20.93;69.98
19594;BME280;9944;48.240;16.478;2023-07-13T07:53:45;99590.38;;;21.04;69.85
19594;BME280;9944;48.240;16.478;2023-07-13T07:58:09;99595.31;;;21.13;69.53
19594;BME280;9944;48.240;16.478;2023-07-13T08:02:53;99602.66;;;21.27;69.71
19594;BME280;9944;48.240;16.478;2023-07-13T08:07:38;99600.53;;;21.34;68.68
19594;BME280;9944;48.240;16.478;2023-07-13T08:12:04;99594.28;;;21.33;68.14
19594;BME280;9944;48.240;16.478;2023-07-13T08:16:30;99595.00;;;21.54;68.75
19594;BME280;9944;48.240;16.478;2023-07-13T08:20:55;99591.50;;;21.87;68.76
19594;BME280;9944;48.240;16.478;2023-07-13T08:25:20;99598.47;;;22.23;68.00
19594;BME280;9944;48.240;16.478;2023-07-13T08:29:47;99596.81;;;22.54;66.60
19594;BME280;9944;48.240;16.478;2023-07-13T08:34:10;99602.53;;;22.79;65.91
19594;BME280;9944;48.240;16.478;2023-07-13T08:38:38;99599.00;;;23.09;64.65
19594;BME280;9944;48.240;16.478;2023-07-13T08:43:02;99601.22;;;23.17;63.44
19594;BME280;9944;48.240;16.478;2023-07-13T08:47:28;99591.31;;;23.33;62.90
19594;BME280;9944;48.240;16.478;2023-07-13T08:51:58;99602.63;;;23.69;62.21
19594;BME280;9944;48.240;16.478;2023-07-13T08:56:26;99600.75;;;24.00;61.12
19594;BME280;9944;48.240;16.478;2023-07-13T09:00:55;99611.94;;;24.22;60.96
19594;BME280;9944;48.240;16.478;2023-07-13T09:05:27;99592.81;;;24.40;59.56
19594;BME280;9944;48.240;16.478;2023-07-13T09:10:00;99597.44;;;24.52;60.17
19594;BME280;9944;48.240;16.478;2023-07-13T09:14:38;99622.84;;;24.77;59.46
19594;BME280;9944;48.240;16.478;2023-07-13T09:19:05;99622.97;;;25.02;57.97
19594;BME280;9944;48.240;16.478;2023-07-13T09:23:32;99625.91;;;25.12;57.73
19594;BME280;9944;48.240;16.478;2023-07-13T09:27:59;99625.00;;;25.26;57.02
19594;BME280;9944;48.240;16.478;2023-07-13T09:32:24;99619.41;;;25.29;56.34
19594;BME280;9944;48.240;16.478;2023-07-13T09:36:49;99615.13;;;25.39;57.83
19594;BME280;9944;48.240;16.478;2023-07-13T09:41:21;99606.25;;;25.50;56.16
19594;BME280;9944;48.240;16.478;2023-07-13T09:45:47;99609.28;;;25.46;55.90
19594;BME280;9944;48.240;16.478;2023-07-13T09:50:15;99608.31;;;25.59;56.55
19594;BME280;9944;48.240;16.478;2023-07-13T09:54:39;99614.06;;;25.80;56.26
19594;BME280;9944;48.240;16.478;2023-07-13T09:59:18;99592.97;;;26.11;56.20
19594;BME280;9944;48.240;16.478;2023-07-13T10:03:52;99596.28;;;26.41;55.23
19594;BME280;9944;48.240;16.478;2023-07-13T10:08:19;99599.28;;;26.62;54.29
19594;BME280;9944;48.240;16.478;2023-07-13T10:12:44;99595.25;;;26.67;53.84
19594;BME280;9944;48.240;16.478;2023-07-13T10:17:12;99599.91;;;26.65;53.57
19594;BME280;9944;48.240;16.478;2023-07-13T10:21:39;99597.94;;;26.80;53.22
19594;BME280;9944;48.240;16.478;2023-07-13T10:26:11;99592.63;;;27.03;53.85
19594;BME280;9944;48.240;16.478;2023-07-13T10:30:40;99605.41;;;27.25;52.38
19594;BME280;9944;48.240;16.478;2023-07-13T10:35:13;99616.66;;;27.32;52.29
19594;BME280;9944;48.240;16.478;2023-07-13T10:39:38;99616.44;;;27.46;51.36
19594;BME280;9944;48.240;16.478;2023-07-13T10:44:03;99620.88;;;27.36;51.18
19594;BME280;9944;48.240;16.478;2023-07-13T10:48:28;99627.03;;;27.38;50.68
19594;BME280;9944;48.240;16.478;2023-07-13T10:53:02;99603.47;;;27.27;50.55
19594;BME280;9944;48.240;16.478;2023-07-13T10:57:26;99607.50;;;27.21;50.24
19594;BME280;9944;48.240;16.478;2023-07-13T11:01:54;99600.03;;;27.36;50.84
19594;BME280;9944;48.240;16.478;2023-07-13T11:06:32;99612.31;;;27.53;49.70
19594;BME280;9944;48.240;16.478;2023-07-13T11:10:58;99595.53;;;27.48;49.28
19594;BME280;9944;48.240;16.478;2023-07-13T11:15:44;99602.66;;;27.49;49.24
19594;BME280;9944;48.240;16.478;2023-07-13T11:20:24;99602.81;;;27.59;49.38
19594;BME280;9944;48.240;16.478;2023-07-13T11:25:00;99617.00;;;27.62;49.14
19594;BME280;9944;48.240;16.478;2023-07-13T11:29:34;99615.97;;;27.52;48.62
19594;BME280;9944;48.240;16.478;2023-07-13T11:34:00;99619.94;;;27.59;49.24
19594;BME280;9944;48.240;16.478;2023-07-13T11:38:29;99619.72;;;27.62;47.89
19594;BME280;9944;48.240;16.478;2023-07-13T11:42:59;99622.03;;;27.56;47.99
19594;BME280;9944;48.240;16.478;2023-07-13T11:47:25;99626.09;;;27.61;46.18
19594;BME280;9944;48.240;16.478;2023-07-13T11:51:51;99617.75;;;27.64;46.93
19594;BME280;9944;48.240;16.478;2023-07-13T11:56:18;99619.97;;;27.71;46.72
19594;BME280;9944;48.240;16.478;2023-07-13T12:00:41;99603.78;;;27.93;46.85
19594;BME280;9944;48.240;16.478;2023-07-13T12:05:12;99597.34;;;28.06;47.55
19594;BME280;9944;48.240;16.478;2023-07-13T12:09:36;99598.09;;;28.08;46.67
19594;BME280;9944;48.240;16.478;2023-07-13T12:14:00;99588.34;;;28.16;46.85
19594;BME280;9944;48.240;16.478;2023-07-13T12:18:29;99585.28;;;28.21;45.62
19594;BME280;9944;48.240;16.478;2023-07-13T12:22:54;99576.13;;;28.22;45.50
19594;BME280;9944;48.240;16.478;2023-07-13T12:27:20;99561.66;;;28.33;45.82
19594;BME280;9944;48.240;16.478;2023-07-13T12:31:46;99571.91;;;28.52;45.85
19594;BME280;9944;48.240;16.478;2023-07-13T12:36:12;99570.50;;;28.69;45.26
19594;BME280;9944;48.240;16.478;2023-07-13T12:40:37;99576.78;;;28.81;44.36
19594;BME280;9944;48.240;16.478;2023-07-13T12:45:05;99571.81;;;28.86;44.19
19594;BME280;9944;48.240;16.478;2023-07-13T12:49:41;99566.88;;;28.91;43.84
19594;BME280;9944;48.240;16.478;2023-07-13T12:54:13;99570.84;;;28.87;43.10
19594;BME280;9944;48.240;16.478;2023-07-13T12:58:41;99564.66;;;28.96;43.02
19594;BME280;9944;48.240;16.478;2023-07-13T13:03:09;99567.38;;;28.85;42.34
19594;BME280;9944;48.240;16.478;2023-07-13T13:07:48;99564.41;;;28.88;42.03
19594;BME280;9944;48.240;16.478;2023-07-13T13:12:12;99555.03;;;28.81;42.72
19594;BME280;9944;48.240;16.478;2023-07-13T13:16:45;99550.38;;;28.71;42.92
19594;BME280;9944;48.240;16.478;2023-07-13T13:21:09;99545.69;;;28.73;42.99
19594;BME280;9944;48.240;16.478;2023-07-13T13:25:33;99524.94;;;28.72;43.21
19594;BME280;9944;48.240;16.478;2023-07-13T13:29:59;99528.91;;;28.68;43.30
19594;BME280;9944;48.240;16.478;2023-07-13T13:34:25;99546.00;;;28.59;42.85
19594;BME280;9944;48.240;16.478;2023-07-13T13:38:49;99552.41;;;28.47;43.25
19594;BME280;9944;48.240;16.478;2023-07-13T13:43:15;99554.66;;;28.41;43.21
19594;BME280;9944;48.240;16.478;2023-07-13T13:47:40;99546.00;;;28.48;44.00
19594;BME280;9944;48.240;16.478;2023-07-13T13:52:08;99538.94;;;28.56;43.27
19594;BME280;9944;48.240;16.478;2023-07-13T13:56:33;99524.63;;;28.54;43.05
19594;BME280;9944;48.240;16.478;2023-07-13T14:00:56;99503.28;;;28.50;43.08
19594;BME280;9944;48.240;16.478;2023-07-13T14:05:23;99497.09;;;28.59;43.60
19594;BME280;9944;48.240;16.478;2023-07-13T14:09:49;99500.44;;;28.51;43.30
19594;BME280;9944;48.240;16.478;2023-07-13T14:14:16;99512.94;;;28.42;42.93
19594;BME280;9944;48.240;16.478;2023-07-13T14:18:41;99502.19;;;28.30;43.16
19594;BME280;9944;48.240;16.478;2023-07-13T14:23:04;99512.34;;;28.16;43.36
19594;BME280;9944;48.240;16.478;2023-07-13T14:27:29;99520.50;;;28.05;43.43
19594;BME280;9944;48.240;16.478;2023-07-13T14:31:53;99532.47;;;27.91;43.08
19594;BME280;9944;48.240;16.478;2023-07-13T14:36:25;99547.88;;;27.79;44.31
19594;BME280;9944;48.240;16.478;2023-07-13T14:40:49;99566.47;;;27.73;44.36
19594;BME280;9944;48.240;16.478;2023-07-13T14:45:16;99573.59;;;27.62;44.62
19594;BME280;9944;48.240;16.478;2023-07-13T14:49:42;99576.28;;;27.51;44.48
19594;BME280;9944;48.240;16.478;2023-07-13T14:54:08;99576.25;;;27.40;44.64
19594;BME280;9944;48.240;16.478;2023-07-13T14:58:34;99563.56;;;27.29;45.14
19594;BME280;9944;48.240;16.478;2023-07-13T15:02:59;99563.28;;;27.21;44.79
19594;BME280;9944;48.240;16.478;2023-07-13T15:07:24;99558.88;;;27.07;45.01
19594;BME280;9944;48.240;16.478;2023-07-13T15:11:47;99568.47;;;27.00;45.20
19594;BME280;9944;48.240;16.478;2023-07-13T15:16:15;99562.00;;;26.89;45.06
19594;BME280;9944;48.240;16.478;2023-07-13T15:20:42;99567.66;;;26.86;45.62
19594;BME280;9944;48.240;16.478;2023-07-13T15:25:12;99568.66;;;26.85;45.78
19594;BME280;9944;48.240;16.478;2023-07-13T15:29:38;99568.88;;;26.82;45.85
19594;BME280;9944;48.240;16.478;2023-07-13T15:34:11;99564.78;;;26.77;45.83
19594;BME280;9944;48.240;16.478;2023-07-13T15:38:39;99569.53;;;26.73;46.05
19594;BME280;9944;48.240;16.478;2023-07-13T15:43:04;99561.91;;;26.67;45.93
19594;BME280;9944;48.240;16.478;2023-07-13T15:47:33;99564.53;;;26.55;46.10
19594;BME280;9944;48.240;16.478;2023-07-13T15:52:00;99567.16;;;26.44;46.42
19594;BME280;9944;48.240;16.478;2023-07-13T15:56:28;99554.31;;;26.35;46.53
19594;BME280;9944;48.240;16.478;2023-07-13T16:00:53;99568.59;;;26.24;46.52
19594;BME280;9944;48.240;16.478;2023-07-13T16:05:18;99574.56;;;26.16;46.54
19594;BME280;9944;48.240;16.478;2023-07-13T16:09:44;99588.66;;;26.09;46.58
19594;BME280;9944;48.240;16.478;2023-07-13T16:14:13;99591.16;;;25.99;46.97
19594;BME280;9944;48.240;16.478;2023-07-13T16:18:37;99597.22;;;25.90;46.82
19594;BME280;9944;48.240;16.478;2023-07-13T16:23:01;99600.75;;;25.77;47.18
19594;BME280;9944;48.240;16.478;2023-07-13T16:27:25;99620.78;;;25.62;46.92
19594;BME280;9944;48.240;16.478;2023-07-13T16:31:58;99626.16;;;25.49;48.44
19594;BME280;9944;48.240;16.478;2023-07-13T16:36:26;99636.75;;;25.39;48.93
19594;BME280;9944;48.240;16.478;2023-07-13T16:40:50;99650.84;;;25.30;49.16
19594;BME280;9944;48.240;16.478;2023-07-13T16:45:14;99652.50;;;25.18;49.60
19594;BME280;9944;48.240;16.478;2023-07-13T16:49:40;99654.97;;;25.09;49.03
19594;BME280;9944;48.240;16.478;2023-07-13T16:54:08;99649.59;;;24.94;49.02
19594;BME280;9944;48.240;16.478;2023-07-13T16:58:32;99645.81;;;24.84;48.95
19594;BME280;9944;48.240;16.478;2023-07-13T17:02:58;99647.16;;;24.77;49.44
19594;BME280;9944;48.240;16.478;2023-07-13T17:07:27;99654.59;;;24.73;49.72
19594;BME280;9944;48.240;16.478;2023-07-13T17:11:51;99643.34;;;24.66;49.64
19594;BME280;9944;48.240;16.478;2023-07-13T17:16:16;99649.78;;;24.64;49.77
19594;BME280;9944;48.240;16.478;2023-07-13T17:20:42;99651.78;;;24.60;49.34
19594;BME280;9944;48.240;16.478;2023-07-13T17:25:11;99643.13;;;24.55;49.46
19594;BME280;9944;48.240;16.478;2023-07-13T17:29:35;99647.94;;;24.50;49.16
19594;BME280;9944;48.240;16.478;2023-07-13T17:33:59;99657.41;;;24.43;49.64
19594;BME280;9944;48.240;16.478;2023-07-13T17:38:30;99637.00;;;24.39;49.21
19594;BME280;9944;48.240;16.478;2023-07-13T17:42:56;99641.59;;;24.37;49.54
19594;BME280;9944;48.240;16.478;2023-07-13T17:47:24;99643.94;;;24.28;49.60
19594;BME280;9944;48.240;16.478;2023-07-13T17:51:49;99635.25;;;24.23;49.52
19594;BME280;9944;48.240;16.478;2023-07-13T17:56:13;99634.28;;;24.24;49.58
19594;BME280;9944;48.240;16.478;2023-07-13T18:00:42;99637.66;;;24.28;49.51
19594;BME280;9944;48.240;16.478;2023-07-13T18:05:11;99649.34;;;24.28;49.98
19594;BME280;9944;48.240;16.478;2023-07-13T18:09:36;99636.13;;;24.24;49.46
19594;BME280;9944;48.240;16.478;2023-07-13T18:14:00;99642.88;;;24.17;49.77
19594;BME280;9944;48.240;16.478;2023-07-13T18:18:30;99643.16;;;24.12;50.13
19594;BME280;9944;48.240;16.478;2023-07-13T18:22:57;99645.09;;;24.10;50.00
19594;BME280;9944;48.240;16.478;2023-07-13T18:27:21;99650.66;;;24.07;49.81
19594;BME280;9944;48.240;16.478;2023-07-13T18:31:46;99649.31;;;24.00;50.07
19594;BME280;9944;48.240;16.478;2023-07-13T18:36:14;99647.88;;;23.94;49.81
19594;BME280;9944;48.240;16.478;2023-07-13T18:40:38;99648.97;;;23.90;49.57
19594;BME280;9944;48.240;16.478;2023-07-13T18:45:03;99652.91;;;23.84;50.25
19594;BME280;9944;48.240;16.478;2023-07-13T18:49:27;99650.41;;;23.81;50.19
19594;BME280;9944;48.240;16.478;2023-07-13T18:53:52;99656.78;;;23.80;49.87
19594;BME280;9944;48.240;16.478;2023-07-13T18:58:16;99656.19;;;23.75;50.24
19594;BME280;9944;48.240;16.478;2023-07-13T19:02:42;99666.09;;;23.74;50.19
19594;BME280;9944;48.240;16.478;2023-07-13T19:07:10;99662.81;;;23.69;49.83
19594;BME280;9944;48.240;16.478;2023-07-13T19:11:35;99665.28;;;23.58;49.96
19594;BME280;9944;48.240;16.478;2023-07-13T19:15:59;99668.44;;;23.50;49.77
19594;BME280;9944;48.240;16.478;2023-07-13T19:20:24;99676.97;;;23.43;49.82
19594;BME280;9944;48.240;16.478;2023-07-13T19:24:50;99691.69;;;23.37;50.18
19594;BME280;9944;48.240;16.478;2023-07-13T19:29:16;99692.84;;;23.33;49.99
19594;BME280;9944;48.240;16.478;2023-07-13T19:33:40;99696.81;;;23.26;50.44
19594;BME280;9944;48.240;16.478;2023-07-13T19:38:04;99697.75;;;23.25;50.30
19594;BME280;9944;48.240;16.478;2023-07-13T19:42:28;99716.78;;;23.22;50.36
19594;BME280;9944;48.240;16.478;2023-07-13T19:46:53;99718.88;;;23.16;50.52
19594;BME280;9944;48.240;16.478;2023-07-13T19:51:22;99728.00;;;23.14;50.67
19594;BME280;9944;48.240;16.478;2023-07-13T19:55:46;99731.72;;;23.11;50.67
19594;BME280;9944;48.240;16.478;2023-07-13T20:00:14;99734.59;;;23.08;50.87
19594;BME280;9944;48.240;16.478;2023-07-13T20:04:40;99741.13;;;23.04;50.85
19594;BME280;9944;48.240;16.478;2023-07-13T20:09:13;99745.81;;;23.00;51.09
19594;BME280;9944;48.240;16.478;2023-07-13T20:13:54;99749.72;;;22.95;50.78
19594;BME280;9944;48.240;16.478;2023-07-13T20:18:18;99745.53;;;22.89;50.77
19594;BME280;9944;48.240;16.478;2023-07-13T20:22:43;99749.44;;;22.84;51.31
19594;BME280;9944;48.240;16.478;2023-07-13T20:27:07;99756.72;;;22.81;51.33
19594;BME280;9944;48.240;16.478;2023-07-13T20:31:32;99752.47;;;22.77;51.30
19594;BME280;9944;48.240;16.478;2023-07-13T20:36:01;99747.09;;;22.77;51.30
19594;BME280;9944;48.240;16.478;2023-07-13T20:40:28;99770.69;;;22.72;51.19
19594;BME280;9944;48.240;16.478;2023-07-13T20:44:53;99762.94;;;22.66;51.24
19594;BME280;9944;48.240;16.478;2023-07-13T20:49:16;99755.13;;;22.61;51.53
19594;BME280;9944;48.240;16.478;2023-07-13T20:53:40;99764.16;;;22.60;51.51
19594;BME280;9944;48.240;16.478;2023-07-13T20:58:05;99758.09;;;22.57;51.98
19594;BME280;9944;48.240;16.478;2023-07-13T21:02:31;99763.53;;;22.55;52.19
19594;BME280;9944;48.240;16.478;2023-07-13T21:06:58;99763.63;;;22.54;51.90
19594;BME280;9944;48.240;16.478;2023-07-13T21:11:22;99755.69;;;22.51;51.90
19594;BME280;9944;48.240;16.478;2023-07-13T21:15:47;99750.56;;;22.46;52.00
19594;BME280;9944;48.240;16.478;2023-07-13T21:20:16;99751.59;;;22.43;52.19
19594;BME280;9944;48.240;16.478;2023-07-13T21:25:07;99753.66;;;22.38;51.94
19594;BME280;9944;48.240;16.478;2023-07-13T21:29:35;99752.00;;;22.36;52.11
19594;BME280;9944;48.240;16.478;2023-07-13T21:34:05;99742.34;;;22.32;51.73
19594;BME280;9944;48.240;16.478;2023-07-13T21:38:33;99738.00;;;22.29;51.74
19594;BME280;9944;48.240;16.478;2023-07-13T21:42:58;99738.94;;;22.28;52.40
19594;BME280;9944;48.240;16.478;2023-07-13T21:47:21;99753.53;;;22.24;52.52
19594;BME280;9944;48.240;16.478;2023-07-13T21:51:47;99756.38;;;22.21;52.33
19594;BME280;9944;48.240;16.478;2023-07-13T21:56:11;99759.41;;;22.15;51.95
19594;BME280;9944;48.240;16.478;2023-07-13T22:00:35;99766.72;;;22.11;52.66
19594;BME280;9944;48.240;16.478;2023-07-13T22:05:00;99777.66;;;22.08;52.44
19594;BME280;9944;48.240;16.478;2023-07-13T22:09:25;99781.38;;;22.05;52.34
19594;BME280;9944;48.240;16.478;2023-07-13T22:13:51;99787.84;;;22.01;52.93
19594;BME280;9944;48.240;16.478;2023-07-13T22:18:17;99786.38;;;21.96;52.50
19594;BME280;9944;48.240;16.478;2023-07-13T22:23:00;99797.25;;;21.93;52.96
19594;BME280;9944;48.240;16.478;2023-07-13T22:27:25;99798.34;;;21.88;52.85
19594;BME280;9944;48.240;16.478;2023-07-13T22:31:51;99819.00;;;21.88;52.47
19594;BME280;9944;48.240;16.478;2023-07-13T22:36:17;99826.28;;;21.86;52.87
19594;BME280;9944;48.240;16.478;2023-07-13T22:40:41;99830.06;;;21.82;53.09
19594;BME280;9944;48.240;16.478;2023-07-13T22:45:09;99837.38;;;21.78;52.47
19594;BME280;9944;48.240;16.478;2023-07-13T22:49:33;99833.94;;;21.75;52.96
19594;BME280;9944;48.240;16.478;2023-07-13T22:53:57;99836.94;;;21.68;53.13
19594;BME280;9944;48.240;16.478;2023-07-13T22:58:22;99848.81;;;21.64;52.80
19594;BME280;9944;48.240;16.478;2023-07-13T23:02:49;99849.09;;;21.58;52.77
19594;BME280;9944;48.240;16.478;2023-07-13T23:07:13;99845.75;;;21.53;52.61
19594;BME280;9944;48.240;16.478;2023-07-13T23:11:37;99847.66;;;21.51;52.81
19594;BME280;9944;48.240;16.478;2023-07-13T23:16:01;99851.41;;;21.47;52.52
19594;BME280;9944;48.240;16.478;2023-07-13T23:20:28;99857.75;;;21.46;52.71
19594;BME280;9944;48.240;16.478;2023-07-13T23:24:53;99869.41;;;21.45;52.55
19594;BME280;9944;48.240;16.478;2023-07-13T23:29:17;99863.97;;;21.46;52.83